Lewisport, KY

8:59 AM CDT on September 20, 2014 (GMT -0500)
RMR - Owensboro | Change Station
CLOSE
Current Station
Personal Weather Station
Location: Owensboro, KY
Elevation: 387 ft
Nearby Weather Stations

Elev 387 ft 37.83 °N, 87.02 °W | Updated 9 minutes ago

Mostly Cloudy
Mostly Cloudy
71.3 °F
Feels Like 71 °F
N
0.0
Wind Variable Wind from SW
Gusts 0.0 mph

Today
High -- | Low -- °F
--% Chance of Precip.
Yesterday
High -- | Low -- °F
Precip. -- in
6:33 AM 6:47 PM
Waning Crescent, 12% visible
Pressure 30.09 in
Visibility 7.0 miles
Clouds Scattered Clouds 4000 ft
Mostly Cloudy 6000 ft
Heat Index 71 °F
Dew Point 66 °F
Humidity 83%
Rainfall 0.00 in
Snow Depth Not available.
UV 1 out of 12
Pollen 6.50 out of 12
Air Quality Not available.
Flu Activity Not available.
METAR KOWB 201256Z 17007KT 7SM SCT040 BKN060 19/18 A3010 RMK AO2 T01940177 SLP190

More Conditions Fewer Conditions

Pressure 30.09 in
Visibility 7.0 miles
Clouds Scattered Clouds 4000 ft
Mostly Cloudy 6000 ft
Heat Index 71 °F
Dew Point 66 °F
Humidity 83%
Rainfall 0.00 in
Snow Depth Not available.
UV 1 out of 12
Pollen 6.50 out of 12
Air Quality Not available.
Flu Activity Not available.
METAR KOWB 201256Z 17007KT 7SM SCT040 BKN060 19/18 A3010 RMK AO2 T01940177 SLP190

More Conditions Fewer Conditions

10-Day Weather Forecast

Almanac

Astronomy

Sep. 20, 2014 Rise Set
Actual Time 6:33 AM CDT 6:47 PM CDT
Civil Twilight 6:07 AM CDT 7:14 PM CDT
Nautical Twilight 5:36 AM CDT 7:44 PM CDT
Astronomical Twilight 5:05 AM CDT 8:15 PM CDT
Moon 3:15 AM CDT 4:48 PM CDT
Length of Visible Light 13h 06m
Length of Day
12h 13m
Tomorrow will be 2m 24s shorter.
Waning Crescent, 12% of the Moon is Illuminated
Today
Waning Crescent
Sep 24
New
Oct 1
First Quarter
Oct 8
Full
Oct 15
Last Quarter

Today's Extremes

State Highs State Lows

Community

WunderPhotos

Upload Photos

1,754,858 photos uploaded!

Nearby

Snow Depth

Station Depth Elevation
No new snow has been reported.

Earthquake Activity

City Distance Mag. Time & Date
No recent earthquake activity has been reported nearby.
Minimum magnitude displayed is 2.5.

Coastal Water Temperatures

Place Temperature
No Stations Reporting

Nearby Weather Stations